Aeroporto :
LOGIN :

Iscrizione | Disclaimer

   EN    FR    IT 

 










Sommario :    VFR   VFR Marginale   IFR   IFR Intensivo   IFR Molto Intensivo
Visibilità : 
Base nubi : 
>= 8 km
>= 3000ft
5 / 8 km
1000 / 3000 ft
1500m / 5 km
500 / 1000 ft
800 / 1500m
200 / 500 ft
< 800m
< 200 ft
Simboli :   Temporali  Nebbia  Neve Forte  Precipitazioni Forti  Vento > 20 kt
SIGMETs :   Varie  Temporali  Ghiacco  Turbolenza  Onda orograficha  Ceneri Vulcaniche






- Altitudine del aeroporto : 55 ft
- Codice IATA : DSA


EGCN - Robin Hood Doncaster Sheffield

ULTIMO METAR :
  • 151120Z 03010KT 9999 SCT015 OVC020 18/14 Q1018

METARs OBSOLETI :
  • 151050Z 04009KT 9999 SCT014 OVC024 18/14 Q1018
  • 151020Z 03008KT 9999 OVC014 18/14 Q1018
  • 150950Z 04008KT 010V070 9999 OVC015 17/14 Q1018
  • 150920Z 03010KT 9999 OVC013 17/13 Q1018
  • 150850Z 03008KT 9999 OVC012 17/14 Q1019

TAF TAF EGCN
Valido dal 15 a 12 ore il 16 a 12 ore UTC


151105Z 1512/1612 04007KT 9999 BKN020
PROB30 1512/1515 BKN014
PROB40
TEMPO 1515/1612 6000 SHRA
BECMG 1518/1521 BKN012
BECMG 1600/1603 BKN007
TEMPO 1600/1609 3000 BR BKN003
PROB30
TEMPO 1603/1609 0300 FG OVC001
PROB30
TEMPO 1609/1612 3000 +SHRA BKN003



MetMap, La meteo Aeronautica in un colpo d'occhio ! - Copyright ORBIFLY Dicembre 2007 - Disclaimer

ORBIFLY MET'MAP TEAM :

Programmazione e sviluppo : Alexandra Zaïnal
Concezione : Baudouin d'Aumeries
Aiuto per la programmazione : Marc-Olivier Méhu
Supporto tecnico e logistico : Manuel Goepfert
Aiuto per la traduzione : Arnaldo La Scala

Contatto : metmap@orbifly.com




FONTI E CREDITI :

   NOAA